createdAt,value
2023-05-20T00:00:53.987Z,20.62
2023-05-20T00:01:53.954Z,20.52
2023-05-20T00:02:54.032Z,20.52
2023-05-20T00:03:54.186Z,20.62
2023-05-20T00:04:54.010Z,20.57
2023-05-20T00:05:53.902Z,20.57
2023-05-20T00:06:53.897Z,20.68
2023-05-20T00:07:53.887Z,20.57
2023-05-20T00:08:53.862Z,20.57
2023-05-20T00:09:53.862Z,20.57
2023-05-20T00:10:53.842Z,20.52
2023-05-20T00:11:53.823Z,20.62
2023-05-20T00:12:53.813Z,20.57
2023-05-20T00:13:53.800Z,20.57
2023-05-20T00:14:54.619Z,20.57
2023-05-20T00:15:53.778Z,20.57
2023-05-20T00:16:53.892Z,20.57
2023-05-20T00:17:53.767Z,20.57
2023-05-20T00:18:53.798Z,20.62
2023-05-20T00:19:53.717Z,20.57
2023-05-20T00:20:53.705Z,20.57
2023-05-20T00:21:53.692Z,20.57
2023-05-20T00:22:53.689Z,20.57
2023-05-20T00:23:53.674Z,20.57
2023-05-20T00:24:53.647Z,20.57
2023-05-20T00:25:53.645Z,20.57
2023-05-20T00:26:53.617Z,20.57
2023-05-20T00:27:53.620Z,20.62
2023-05-20T00:28:53.611Z,20.57
2023-05-20T00:29:53.581Z,20.52
2023-05-20T00:30:53.574Z,20.52
2023-05-20T00:31:53.550Z,20.57
2023-05-20T00:32:53.575Z,20.57
2023-05-20T00:33:53.525Z,20.57
2023-05-20T00:34:53.521Z,20.57
2023-05-20T00:35:53.498Z,20.57
2023-05-20T00:36:53.493Z,20.57
2023-05-20T00:37:53.546Z,20.57
2023-05-20T00:38:53.459Z,20.57
2023-05-20T00:39:53.442Z,20.57
2023-05-20T00:40:53.452Z,20.57
2023-05-20T00:41:53.428Z,20.57
2023-05-20T00:42:53.420Z,20.57
2023-05-20T00:43:53.389Z,20.57
2023-05-20T00:44:53.387Z,20.57
2023-05-20T00:45:53.425Z,20.62
2023-05-20T00:46:53.370Z,20.57
2023-05-20T00:47:53.350Z,20.57
2023-05-20T00:48:53.338Z,20.57
2023-05-20T00:49:53.321Z,20.57
2023-05-20T00:50:53.330Z,20.57
2023-05-20T00:51:53.302Z,20.57
2023-05-20T00:52:53.271Z,20.62
2023-05-20T00:53:53.261Z,20.57
2023-05-20T00:54:53.252Z,20.52
2023-05-20T00:55:53.250Z,20.52
2023-05-20T00:56:53.251Z,20.57
2023-05-20T00:57:53.213Z,20.57
2023-05-20T00:58:53.197Z,20.57
2023-05-20T00:59:53.185Z,20.57
2023-05-20T01:00:53.177Z,20.57
2023-05-20T01:01:53.260Z,20.52
2023-05-20T01:02:53.218Z,20.62
2023-05-20T01:03:53.159Z,20.57
2023-05-20T01:04:53.118Z,20.57
2023-05-20T01:05:53.122Z,20.52
2023-05-20T01:06:53.098Z,20.52
2023-05-20T01:07:53.070Z,20.57
2023-05-20T01:08:53.066Z,20.52
2023-05-20T01:09:53.057Z,20.57
2023-05-20T01:10:53.057Z,20.57
2023-05-20T01:11:53.022Z,20.57
2023-05-20T01:12:52.999Z,20.57
2023-05-20T01:13:52.994Z,20.57
2023-05-20T01:14:52.992Z,20.57
2023-05-20T01:15:52.978Z,20.52
2023-05-20T01:16:52.960Z,20.57
2023-05-20T01:17:53.017Z,20.62
2023-05-20T01:18:53.009Z,20.57
2023-05-20T01:19:52.918Z,20.57
2023-05-20T01:20:52.895Z,20.57
2023-05-20T01:21:52.885Z,20.57
2023-05-20T01:22:52.871Z,20.57
2023-05-20T01:23:52.867Z,20.57
2023-05-20T01:24:52.857Z,20.57
2023-05-20T01:25:52.846Z,20.30
2023-05-20T01:26:52.819Z,20.52
2023-05-20T01:27:52.857Z,20.57
2023-05-20T01:28:52.805Z,20.57
2023-05-20T01:29:52.908Z,20.57
2023-05-20T01:30:52.799Z,20.57
2023-05-20T01:31:52.779Z,20.62
2023-05-20T01:32:52.889Z,20.57
2023-05-20T01:33:52.728Z,20.62
2023-05-20T01:34:52.726Z,20.57
2023-05-20T01:35:52.696Z,20.95
2023-05-20T01:36:52.702Z,20.57
2023-05-20T01:37:52.673Z,20.57
2023-05-20T01:39:01.356Z,20.57
2023-05-20T01:40:00.206Z,20.52
2023-05-20T01:41:00.121Z,20.52
2023-05-20T01:41:59.618Z,20.57
2023-05-20T01:42:59.635Z,20.52
2023-05-20T01:43:52.587Z,20.68
2023-05-20T01:44:52.608Z,20.57
2023-05-20T01:45:52.563Z,20.57
2023-05-20T01:46:52.585Z,20.57
2023-05-20T01:47:52.556Z,20.62
2023-05-20T01:48:52.528Z,20.57
2023-05-20T01:49:52.516Z,20.52
2023-05-20T01:50:52.506Z,20.57
2023-05-20T01:51:52.492Z,20.57
2023-05-20T01:52:52.485Z,20.57
2023-05-20T01:53:52.456Z,20.62
2023-05-20T01:54:52.447Z,20.57
2023-05-20T01:55:52.429Z,20.62
2023-05-20T01:56:52.440Z,20.57
2023-05-20T01:57:52.396Z,20.57
2023-05-20T01:58:52.398Z,20.57
2023-05-20T01:59:52.383Z,20.57
2023-05-20T02:00:52.409Z,20.52
2023-05-20T02:01:52.397Z,20.52
2023-05-20T02:02:52.365Z,20.46
2023-05-20T02:03:52.330Z,20.57
2023-05-20T02:04:52.302Z,20.52
2023-05-20T02:05:52.342Z,20.52
2023-05-20T02:06:52.313Z,20.57
2023-05-20T02:07:52.278Z,20.57
2023-05-20T02:08:52.254Z,20.57
2023-05-20T02:09:52.261Z,20.52
2023-05-20T02:10:52.249Z,20.57
2023-05-20T02:11:52.230Z,20.57
2023-05-20T02:12:52.209Z,20.57
2023-05-20T02:13:52.205Z,20.52
2023-05-20T02:14:52.232Z,20.57
2023-05-20T02:16:00.900Z,20.57
2023-05-20T02:16:59.711Z,20.57
2023-05-20T02:17:52.176Z,20.57
2023-05-20T02:18:52.180Z,20.57
2023-05-20T02:19:52.135Z,20.52
2023-05-20T02:20:52.105Z,20.52
2023-05-20T02:21:52.096Z,20.57
2023-05-20T02:22:52.072Z,20.25
2023-05-20T02:23:52.096Z,20.57
2023-05-20T02:24:52.072Z,20.57
2023-05-20T02:25:52.039Z,20.57
2023-05-20T02:26:52.024Z,20.52
2023-05-20T02:27:52.020Z,20.57
2023-05-20T02:28:52.009Z,20.57
2023-05-20T02:29:52.007Z,20.57
2023-05-20T02:30:51.971Z,20.57
2023-05-20T02:31:51.956Z,20.57
2023-05-20T02:32:51.945Z,20.57
2023-05-20T02:33:52.021Z,20.52
2023-05-20T02:34:51.912Z,20.57
2023-05-20T02:35:51.905Z,20.57
2023-05-20T02:36:51.905Z,20.57
2023-05-20T02:37:51.897Z,20.57
2023-05-20T02:38:52.806Z,20.68
2023-05-20T02:39:53.154Z,20.95
2023-05-20T02:40:52.719Z,20.57
2023-05-20T02:41:51.838Z,20.52
2023-05-20T02:42:51.814Z,20.57
2023-05-20T02:43:51.803Z,20.57
2023-05-20T02:44:51.777Z,20.57
2023-05-20T02:45:51.787Z,20.57
2023-05-20T02:46:51.753Z,20.57
2023-05-20T02:47:51.905Z,20.62
2023-05-20T02:48:51.723Z,20.57
2023-05-20T02:49:51.711Z,20.57
2023-05-20T02:50:51.705Z,20.57
2023-05-20T02:51:51.687Z,20.57
2023-05-20T02:52:51.680Z,20.62
2023-05-20T02:53:51.658Z,20.62
2023-05-20T02:54:51.639Z,20.57
2023-05-20T02:55:51.637Z,20.57
2023-05-20T02:56:51.632Z,20.57
2023-05-20T02:57:51.617Z,21.00
2023-05-20T02:58:51.590Z,20.57
2023-05-20T02:59:51.593Z,20.57
2023-05-20T03:00:51.592Z,20.57
2023-05-20T03:01:51.683Z,20.62
2023-05-20T03:02:51.581Z,20.57
2023-05-20T03:03:51.582Z,20.57
2023-05-20T03:04:51.527Z,20.57
2023-05-20T03:05:51.499Z,20.57
2023-05-20T03:06:51.493Z,20.57
2023-05-20T03:07:51.471Z,20.52
2023-05-20T03:08:51.462Z,20.57
2023-05-20T03:09:51.446Z,20.57
2023-05-20T03:10:51.466Z,20.57
2023-05-20T03:11:51.441Z,20.62
2023-05-20T03:12:51.414Z,20.57
2023-05-20T03:13:51.400Z,20.57
2023-05-20T03:14:51.371Z,20.57
2023-05-20T03:15:51.419Z,20.62
2023-05-20T03:16:51.350Z,20.52
2023-05-20T03:17:51.388Z,20.52
2023-05-20T03:18:51.399Z,20.57
2023-05-20T03:19:51.311Z,20.57
2023-05-20T03:20:51.318Z,20.57
2023-05-20T03:21:51.300Z,20.14
2023-05-20T03:22:51.273Z,20.57
2023-05-20T03:23:51.267Z,20.57
2023-05-20T03:24:51.250Z,20.62
2023-05-20T03:25:51.245Z,20.52
2023-05-20T03:26:51.232Z,20.62
2023-05-20T03:27:51.199Z,20.57
2023-05-20T03:28:51.182Z,20.57
2023-05-20T03:29:51.213Z,20.57
2023-05-20T03:30:51.166Z,20.62
2023-05-20T03:31:51.246Z,21.48
2023-05-20T03:32:51.153Z,20.57
2023-05-20T03:33:51.121Z,20.57
2023-05-20T03:34:51.124Z,20.62
2023-05-20T03:35:51.091Z,20.57
2023-05-20T03:36:51.073Z,20.57
2023-05-20T03:37:51.062Z,20.52
2023-05-20T03:38:51.073Z,20.52
2023-05-20T03:39:51.061Z,20.57
2023-05-20T03:40:51.021Z,20.57
2023-05-20T03:41:51.014Z,20.57
2023-05-20T03:42:50.991Z,20.57
2023-05-20T03:43:51.003Z,20.52
2023-05-20T03:44:50.973Z,20.52
2023-05-20T03:45:50.962Z,20.57
2023-05-20T03:46:51.008Z,20.20
2023-05-20T03:47:50.961Z,20.62
2023-05-20T03:48:50.924Z,20.57
2023-05-20T03:49:50.902Z,20.52
2023-05-20T03:50:50.902Z,20.57
2023-05-20T03:51:50.882Z,20.57
2023-05-20T03:52:50.880Z,20.57
2023-05-20T03:53:50.858Z,20.57
2023-05-20T03:54:50.835Z,20.57
2023-05-20T03:55:50.827Z,20.62
2023-05-20T03:56:50.803Z,20.57
2023-05-20T03:57:50.810Z,20.57
2023-05-20T03:58:50.782Z,20.57
2023-05-20T03:59:50.772Z,20.57
2023-05-20T04:00:50.772Z,20.62
2023-05-20T04:01:50.755Z,20.57
2023-05-20T04:02:50.797Z,20.62
2023-05-20T04:03:50.895Z,20.62
2023-05-20T04:04:50.697Z,20.57
2023-05-20T04:05:50.689Z,20.57
2023-05-20T04:06:50.685Z,20.57
2023-05-20T04:07:50.686Z,20.52
2023-05-20T04:08:50.660Z,20.57
2023-05-20T04:09:50.662Z,20.52
2023-05-20T04:10:50.619Z,20.52
2023-05-20T04:11:50.637Z,20.57
2023-05-20T04:12:50.617Z,20.57
2023-05-20T04:13:50.609Z,20.57
2023-05-20T04:14:50.569Z,20.52
2023-05-20T04:15:50.566Z,20.57
2023-05-20T04:16:50.636Z,20.57
2023-05-20T04:17:50.665Z,20.57
2023-05-20T04:18:50.529Z,20.57
2023-05-20T04:19:50.496Z,20.57
2023-05-20T04:20:50.510Z,20.52
2023-05-20T04:21:50.501Z,20.57
2023-05-20T04:22:50.459Z,20.57
2023-05-20T04:23:50.459Z,20.52
2023-05-20T04:24:50.434Z,20.52
2023-05-20T04:25:50.447Z,20.62
2023-05-20T04:26:50.406Z,20.52
2023-05-20T04:27:50.399Z,20.57
2023-05-20T04:28:50.388Z,20.62
2023-05-20T04:29:50.374Z,20.57
2023-05-20T04:30:50.383Z,20.57
2023-05-20T04:31:50.378Z,20.52
2023-05-20T04:32:50.377Z,20.52
2023-05-20T04:33:50.338Z,20.52
2023-05-20T04:34:50.317Z,20.46
2023-05-20T04:35:50.309Z,20.57
2023-05-20T04:36:50.284Z,20.57
2023-05-20T04:37:50.279Z,20.57
2023-05-20T04:38:50.251Z,20.57
2023-05-20T04:39:50.254Z,20.57
2023-05-20T04:40:50.251Z,20.57
2023-05-20T04:41:50.216Z,20.52
2023-05-20T04:42:50.216Z,20.57
2023-05-20T04:43:50.183Z,20.57
2023-05-20T04:44:50.181Z,20.62
2023-05-20T04:45:50.181Z,20.57
2023-05-20T04:46:50.151Z,20.52
2023-05-20T04:47:50.191Z,20.57
2023-05-20T04:48:50.131Z,20.73
2023-05-20T04:49:50.133Z,20.52
2023-05-20T04:50:50.112Z,20.52
2023-05-20T04:51:50.088Z,20.52
2023-05-20T04:52:50.066Z,20.57
2023-05-20T04:53:50.069Z,20.57
2023-05-20T04:54:50.043Z,20.57
2023-05-20T04:55:50.021Z,20.57
2023-05-20T04:56:50.012Z,20.57
2023-05-20T04:57:49.998Z,20.57
2023-05-20T04:58:49.998Z,20.62
2023-05-20T04:59:49.968Z,20.57
2023-05-20T05:00:49.974Z,20.57
2023-05-20T05:01:49.971Z,20.57
2023-05-20T05:02:50.023Z,20.57
2023-05-20T05:03:49.923Z,20.57
2023-05-20T05:04:49.940Z,20.57
2023-05-20T05:05:49.887Z,20.57
2023-05-20T05:06:49.893Z,20.57
2023-05-20T05:07:49.881Z,20.57
2023-05-20T05:08:49.860Z,20.57
2023-05-20T05:09:49.839Z,20.95
2023-05-20T05:10:49.850Z,20.57
2023-05-20T05:11:49.823Z,20.57
2023-05-20T05:12:49.821Z,20.57
2023-05-20T05:13:49.789Z,20.57
2023-05-20T05:14:49.776Z,20.57
2023-05-20T05:15:49.863Z,20.57
2023-05-20T05:16:49.755Z,20.62
2023-05-20T05:17:49.788Z,20.57
2023-05-20T05:18:49.758Z,20.62
2023-05-20T05:19:49.716Z,20.52
2023-05-20T05:20:49.706Z,20.57
2023-05-20T05:21:49.687Z,20.57
2023-05-20T05:22:49.668Z,20.57
2023-05-20T05:23:49.659Z,20.57
2023-05-20T05:24:49.638Z,20.62
2023-05-20T05:25:49.638Z,20.52
2023-05-20T05:26:49.626Z,20.62
2023-05-20T05:27:49.601Z,20.57
2023-05-20T05:28:49.597Z,20.57
2023-05-20T05:29:49.565Z,20.57
2023-05-20T05:30:49.591Z,20.57
2023-05-20T05:31:49.592Z,20.57
2023-05-20T05:32:49.815Z,20.57
2023-05-20T05:33:49.520Z,20.57
2023-05-20T05:34:49.513Z,20.62
2023-05-20T05:35:49.503Z,20.57
2023-05-20T05:36:49.478Z,20.52
2023-05-20T05:37:49.464Z,20.57
2023-05-20T05:38:49.456Z,20.57
2023-05-20T05:39:49.449Z,20.52
2023-05-20T05:40:49.448Z,20.57
2023-05-20T05:41:49.411Z,20.57
2023-05-20T05:42:49.408Z,20.57
2023-05-20T05:43:49.388Z,20.57
2023-05-20T05:44:49.389Z,20.57
2023-05-20T05:45:49.383Z,20.52
2023-05-20T05:46:49.380Z,20.57
2023-05-20T05:47:49.400Z,20.62
2023-05-20T05:48:49.325Z,20.57
2023-05-20T05:49:49.317Z,20.57
2023-05-20T05:50:49.304Z,20.57
2023-05-20T05:51:49.284Z,20.57
2023-05-20T05:52:49.272Z,20.52
2023-05-20T05:53:49.280Z,20.62
2023-05-20T05:54:49.255Z,20.57
2023-05-20T05:55:49.220Z,20.52
2023-05-20T05:56:49.219Z,20.52
2023-05-20T05:57:49.195Z,20.57
2023-05-20T05:58:49.207Z,20.57
2023-05-20T05:59:49.197Z,20.57
2023-05-20T06:00:49.236Z,20.57
2023-05-20T06:01:49.263Z,20.62
2023-05-20T06:02:49.461Z,20.62
2023-05-20T06:03:49.200Z,20.57
2023-05-20T06:04:49.109Z,20.57
2023-05-20T06:05:49.095Z,20.57
2023-05-20T06:06:49.081Z,20.52
2023-05-20T06:07:49.086Z,20.57
2023-05-20T06:08:49.066Z,20.57
2023-05-20T06:09:56.028Z,20.57
2023-05-20T06:10:56.026Z,20.52
2023-05-20T06:11:56.071Z,20.57
2023-05-20T06:12:56.051Z,20.52
2023-05-20T06:13:56.519Z,20.52
2023-05-20T06:14:48.993Z,20.57
2023-05-20T06:15:48.954Z,20.57
2023-05-20T06:16:49.018Z,20.57
2023-05-20T06:17:49.009Z,20.57
2023-05-20T06:18:48.941Z,20.62
2023-05-20T06:19:48.906Z,20.62
2023-05-20T06:20:48.901Z,20.57
2023-05-20T06:21:48.884Z,20.57
2023-05-20T06:22:48.882Z,20.62
2023-05-20T06:23:48.852Z,20.57
2023-05-20T06:24:48.869Z,20.57
2023-05-20T06:25:48.829Z,20.57
2023-05-20T06:26:48.831Z,20.62
2023-05-20T06:27:48.817Z,20.57
2023-05-20T06:28:48.787Z,20.57
2023-05-20T06:29:48.778Z,20.57
2023-05-20T06:30:48.849Z,20.57
2023-05-20T06:31:48.766Z,20.62
2023-05-20T06:32:48.796Z,20.62
2023-05-20T06:33:48.724Z,20.57
2023-05-20T06:34:48.710Z,20.57
2023-05-20T06:35:48.720Z,20.57
2023-05-20T06:36:48.718Z,20.62
2023-05-20T06:37:48.766Z,20.57
2023-05-20T06:38:48.665Z,20.57
2023-05-20T06:39:48.639Z,20.57
2023-05-20T06:40:48.652Z,20.62
2023-05-20T06:41:48.611Z,20.57
2023-05-20T06:42:48.611Z,20.57
2023-05-20T06:43:49.737Z,20.57
2023-05-20T06:44:48.580Z,20.57
2023-05-20T06:45:48.584Z,20.62
2023-05-20T06:46:48.568Z,20.57
2023-05-20T06:47:48.567Z,20.57
2023-05-20T06:48:48.521Z,20.57
2023-05-20T06:49:48.516Z,20.57
2023-05-20T06:50:48.535Z,20.62
2023-05-20T06:51:48.503Z,20.57
2023-05-20T06:52:48.482Z,20.57
2023-05-20T06:53:48.454Z,20.57
2023-05-20T06:54:48.469Z,20.62
2023-05-20T06:55:48.436Z,20.57
2023-05-20T06:56:48.425Z,20.57
2023-05-20T06:57:48.406Z,20.57
2023-05-20T06:58:48.402Z,20.62
2023-05-20T06:59:48.381Z,20.20
2023-05-20T07:00:48.381Z,20.57
2023-05-20T07:01:48.380Z,21.00
2023-05-20T07:02:48.365Z,20.57
2023-05-20T07:03:48.382Z,20.57
2023-05-20T07:04:48.324Z,20.57
2023-05-20T07:05:48.282Z,20.62
2023-05-20T07:06:48.300Z,20.20
2023-05-20T07:07:48.273Z,20.62
2023-05-20T07:08:48.277Z,20.25
2023-05-20T07:09:48.243Z,20.57
2023-05-20T07:10:48.240Z,20.57
2023-05-20T07:11:48.216Z,20.20
2023-05-20T07:12:48.199Z,20.20
2023-05-20T07:13:48.209Z,20.25
2023-05-20T07:14:48.181Z,20.57
2023-05-20T07:15:48.220Z,20.57
2023-05-20T07:16:48.154Z,20.20
2023-05-20T07:17:48.194Z,20.20
2023-05-20T07:18:48.154Z,20.57
2023-05-20T07:19:48.109Z,20.57
2023-05-20T07:20:48.103Z,20.20
2023-05-20T07:21:48.154Z,20.20
2023-05-20T07:22:48.080Z,20.20
2023-05-20T07:23:48.060Z,20.20
2023-05-20T07:24:48.057Z,20.14
2023-05-20T07:25:48.033Z,21.70
2023-05-20T07:26:48.012Z,20.20
2023-05-20T07:27:48.014Z,20.20
2023-05-20T07:28:47.989Z,20.57
2023-05-20T07:29:47.968Z,20.20
2023-05-20T07:30:47.956Z,20.57
2023-05-20T07:31:47.972Z,20.62
2023-05-20T07:32:47.981Z,20.20
2023-05-20T07:33:47.912Z,20.25
2023-05-20T07:34:47.914Z,20.57
2023-05-20T07:35:47.890Z,20.57
2023-05-20T07:36:47.891Z,20.20
2023-05-20T07:37:47.868Z,20.57
2023-05-20T07:38:56.919Z,20.14
2023-05-20T07:39:48.839Z,20.20
2023-05-20T07:40:47.831Z,20.20
2023-05-20T07:41:47.822Z,20.14
2023-05-20T07:42:47.799Z,20.14
2023-05-20T07:43:47.781Z,20.20
2023-05-20T07:44:47.763Z,20.14
2023-05-20T07:45:47.801Z,20.57
2023-05-20T07:46:47.764Z,20.57
2023-05-20T07:47:47.778Z,20.20
2023-05-20T07:48:47.723Z,20.30
2023-05-20T07:49:47.700Z,20.57
2023-05-20T07:50:47.713Z,20.20
2023-05-20T07:51:47.687Z,20.20
2023-05-20T07:52:55.855Z,20.20
2023-05-20T07:53:48.651Z,20.20
2023-05-20T07:54:47.649Z,20.14
2023-05-20T07:55:47.632Z,20.30
2023-05-20T07:56:47.629Z,20.14
2023-05-20T07:57:47.602Z,20.14
2023-05-20T07:58:47.592Z,20.62
2023-05-20T07:59:47.586Z,20.20
2023-05-20T08:00:47.569Z,20.20
2023-05-20T08:01:47.568Z,20.62
2023-05-20T08:02:47.675Z,20.20
2023-05-20T08:03:47.650Z,20.57
2023-05-20T08:04:47.516Z,20.14
2023-05-20T08:05:47.487Z,20.20
2023-05-20T08:06:47.497Z,20.20
2023-05-20T08:07:47.459Z,20.20
2023-05-20T08:08:47.472Z,20.57
2023-05-20T08:09:47.479Z,20.57
2023-05-20T08:10:47.425Z,20.14
2023-05-20T08:11:47.733Z,20.20
2023-05-20T08:12:47.396Z,20.20
2023-05-20T08:13:47.404Z,20.20
2023-05-20T08:14:47.372Z,20.20
2023-05-20T08:15:47.354Z,20.20
2023-05-20T08:16:47.403Z,20.57
2023-05-20T08:17:47.346Z,20.20
2023-05-20T08:18:47.390Z,20.62
2023-05-20T08:19:47.303Z,20.14
2023-05-20T08:20:47.288Z,20.62
2023-05-20T08:21:47.270Z,20.14
2023-05-20T08:22:47.277Z,20.20
2023-05-20T08:23:47.255Z,20.20
2023-05-20T08:24:47.236Z,20.14
2023-05-20T08:25:47.221Z,20.20
2023-05-20T08:26:47.217Z,20.20
2023-05-20T08:27:47.207Z,20.20
2023-05-20T08:28:47.254Z,20.52
2023-05-20T08:29:47.197Z,20.20
2023-05-20T08:30:47.208Z,20.20
2023-05-20T08:31:47.159Z,20.20
2023-05-20T08:32:47.195Z,20.25
2023-05-20T08:33:47.119Z,20.20
2023-05-20T08:34:47.109Z,20.36
2023-05-20T08:35:47.084Z,20.20
2023-05-20T08:36:47.098Z,20.57
2023-05-20T08:37:50.824Z,20.20
2023-05-20T08:38:47.057Z,20.20
2023-05-20T08:39:47.093Z,20.62
2023-05-20T08:40:47.025Z,20.20
2023-05-20T08:41:47.029Z,20.20
2023-05-20T08:42:46.995Z,20.79
2023-05-20T08:43:46.978Z,20.57
2023-05-20T08:44:46.987Z,20.20
2023-05-20T08:45:46.979Z,20.14
2023-05-20T08:46:47.011Z,20.20
2023-05-20T08:47:47.064Z,20.20
2023-05-20T08:48:46.918Z,20.25
2023-05-20T08:49:46.906Z,20.14
2023-05-20T08:50:46.925Z,20.20
2023-05-20T08:51:46.897Z,20.20
2023-05-20T08:52:46.879Z,20.14
2023-05-20T08:53:46.848Z,20.20
2023-05-20T08:54:46.835Z,20.57
2023-05-20T08:55:46.837Z,20.20
2023-05-20T08:56:46.815Z,20.20
2023-05-20T08:57:46.804Z,20.20
2023-05-20T08:58:46.882Z,20.14
2023-05-20T08:59:47.026Z,20.20
2023-05-20T09:00:46.779Z,20.20
2023-05-20T09:01:46.783Z,20.20
2023-05-20T09:02:46.770Z,20.20
2023-05-20T09:03:46.718Z,20.20
2023-05-20T09:04:46.747Z,20.20
2023-05-20T09:05:46.698Z,20.20
2023-05-20T09:06:46.683Z,20.20
2023-05-20T09:07:46.666Z,20.20
2023-05-20T09:08:46.654Z,20.20
2023-05-20T09:09:46.656Z,20.20
2023-05-20T09:10:46.632Z,20.20
2023-05-20T09:11:46.612Z,20.14
2023-05-20T09:12:46.600Z,20.20
2023-05-20T09:13:46.602Z,20.20
2023-05-20T09:14:46.587Z,20.20
2023-05-20T09:15:46.596Z,20.20
2023-05-20T09:16:46.575Z,20.20
2023-05-20T09:17:46.589Z,20.20
2023-05-20T09:18:46.538Z,20.14
2023-05-20T09:19:46.508Z,20.20
2023-05-20T09:20:46.490Z,20.14
2023-05-20T09:21:46.484Z,20.20
2023-05-20T09:22:46.472Z,20.25
2023-05-20T09:23:46.479Z,20.20
2023-05-20T09:24:46.432Z,20.25
2023-05-20T09:25:46.427Z,20.20
2023-05-20T09:26:46.458Z,20.20
2023-05-20T09:27:46.417Z,20.20
2023-05-20T09:28:46.395Z,20.14
2023-05-20T09:29:46.382Z,20.20
2023-05-20T09:30:46.358Z,20.25
2023-05-20T09:31:46.388Z,20.20
2023-05-20T09:32:46.356Z,20.20
2023-05-20T09:33:46.312Z,20.14
2023-05-20T09:34:46.297Z,20.20
2023-05-20T09:35:46.291Z,20.20
2023-05-20T09:36:46.277Z,20.20
2023-05-20T09:37:46.290Z,20.20
2023-05-20T09:38:46.250Z,20.20
2023-05-20T09:39:46.240Z,20.20
2023-05-20T09:40:46.236Z,20.20
2023-05-20T09:41:46.221Z,19.60
2023-05-20T09:42:46.206Z,20.20
2023-05-20T09:43:46.197Z,20.20
2023-05-20T09:44:46.163Z,20.14
2023-05-20T09:45:46.188Z,20.20
2023-05-20T09:46:46.153Z,20.20
2023-05-20T09:47:53.202Z,20.20
2023-05-20T09:48:53.617Z,20.14
2023-05-20T09:49:46.113Z,20.14
2023-05-20T09:50:46.084Z,20.20
2023-05-20T09:51:46.111Z,20.14
2023-05-20T09:52:46.059Z,20.20
2023-05-20T09:53:46.055Z,19.60
2023-05-20T09:54:46.028Z,20.20
2023-05-20T09:55:46.049Z,20.20
2023-05-20T09:56:46.039Z,20.20
2023-05-20T09:57:45.995Z,20.20
2023-05-20T09:58:45.976Z,20.25
2023-05-20T09:59:45.971Z,20.20
2023-05-20T10:00:45.966Z,20.20
2023-05-20T10:01:46.095Z,20.20
2023-05-20T10:02:46.128Z,20.20
2023-05-20T10:03:46.036Z,20.20
2023-05-20T10:04:45.906Z,20.14
2023-05-20T10:05:45.902Z,20.20
2023-05-20T10:06:45.870Z,20.20
2023-05-20T10:07:45.863Z,20.20
2023-05-20T10:08:45.849Z,20.20
2023-05-20T10:09:45.856Z,20.20
2023-05-20T10:10:45.833Z,20.14
2023-05-20T10:11:45.816Z,20.20
2023-05-20T10:12:45.796Z,20.20
2023-05-20T10:13:45.783Z,20.14
2023-05-20T10:14:45.783Z,20.20
2023-05-20T10:15:45.820Z,20.20
2023-05-20T10:16:45.758Z,19.82
2023-05-20T10:17:45.795Z,20.20
2023-05-20T10:18:45.734Z,20.20
2023-05-20T10:19:45.746Z,20.20
2023-05-20T10:20:45.687Z,20.20
2023-05-20T10:21:45.680Z,19.93
2023-05-20T10:22:45.669Z,20.20
2023-05-20T10:23:45.662Z,20.14
2023-05-20T10:24:45.661Z,20.14
2023-05-20T10:25:45.624Z,20.20
2023-05-20T10:26:45.607Z,20.14
2023-05-20T10:27:45.600Z,20.14
2023-05-20T10:28:45.595Z,20.14
2023-05-20T10:29:45.565Z,20.20
2023-05-20T10:30:45.557Z,20.20
2023-05-20T10:31:45.560Z,20.20
2023-05-20T10:32:45.614Z,20.20
2023-05-20T10:33:45.658Z,20.20
2023-05-20T10:34:45.497Z,20.20
2023-05-20T10:35:45.487Z,20.20
2023-05-20T10:36:45.472Z,20.14
2023-05-20T10:37:45.481Z,20.20
2023-05-20T10:38:45.459Z,20.20
2023-05-20T10:39:45.440Z,20.14
2023-05-20T10:40:45.416Z,20.20
2023-05-20T10:41:45.430Z,20.20
2023-05-20T10:42:45.405Z,20.20
2023-05-20T10:43:45.386Z,20.20
2023-05-20T10:44:45.370Z,20.20
2023-05-20T10:45:45.361Z,20.20
2023-05-20T10:47:06.636Z,20.20
2023-05-20T10:51:16.180Z,19.87
2023-05-20T10:52:16.164Z,20.20
2023-05-20T10:53:29.454Z,20.14
2023-05-20T10:54:17.121Z,20.20
2023-05-20T10:55:16.126Z,20.20
2023-05-20T10:56:16.098Z,20.20
2023-05-20T10:57:16.108Z,20.14
2023-05-20T10:58:16.079Z,20.20
2023-05-20T10:59:16.076Z,19.82
2023-05-20T11:00:16.051Z,20.46
2023-05-20T11:01:16.090Z,20.25
2023-05-20T11:02:16.030Z,20.20
2023-05-20T11:03:16.103Z,19.77
2023-05-20T11:04:16.129Z,20.20
2023-05-20T11:05:15.983Z,20.20
2023-05-20T11:06:17.566Z,20.20
2023-05-20T11:07:15.959Z,20.20
2023-05-20T11:08:27.648Z,20.20
2023-05-20T11:09:20.322Z,20.20
2023-05-20T11:10:15.923Z,19.77
2023-05-20T11:11:15.928Z,20.20
2023-05-20T11:12:17.325Z,20.20
2023-05-20T11:13:15.933Z,20.14
2023-05-20T11:14:15.858Z,20.20
2023-05-20T11:15:15.869Z,20.20
2023-05-20T11:16:15.917Z,20.20
2023-05-20T11:17:15.844Z,20.25
2023-05-20T11:18:17.866Z,20.20
2023-05-20T11:19:15.890Z,20.14
2023-05-20T11:20:15.829Z,20.25
2023-05-20T11:21:15.822Z,19.87
2023-05-20T11:22:15.796Z,20.25
2023-05-20T11:23:16.006Z,20.20
2023-05-20T11:24:15.726Z,19.82
2023-05-20T11:25:15.741Z,19.77
2023-05-20T11:26:15.745Z,20.20
2023-05-20T11:27:15.697Z,20.25
2023-05-20T11:28:15.674Z,20.20
2023-05-20T11:29:15.684Z,20.20
2023-05-20T11:30:15.668Z,20.20
2023-05-20T11:31:15.646Z,20.20
2023-05-20T11:32:15.624Z,20.20
2023-05-20T11:33:15.626Z,19.82
2023-05-20T11:34:15.609Z,19.77
2023-05-20T11:35:15.588Z,20.20
2023-05-20T11:36:26.795Z,20.20
2023-05-20T11:37:16.571Z,19.82
2023-05-20T11:38:15.534Z,20.14
2023-05-20T11:39:15.611Z,20.20
2023-05-20T11:40:15.528Z,20.20
2023-05-20T11:41:15.512Z,20.14
2023-05-20T11:42:15.491Z,19.82
2023-05-20T11:43:15.511Z,20.20
2023-05-20T11:44:15.475Z,20.20
2023-05-20T11:45:15.458Z,20.20
2023-05-20T11:46:15.455Z,20.14
2023-05-20T11:47:17.622Z,19.82
2023-05-20T11:48:15.596Z,20.20
2023-05-20T11:49:15.402Z,19.82
2023-05-20T11:50:15.386Z,20.14
2023-05-20T11:51:15.369Z,19.82
2023-05-20T11:52:15.354Z,20.14
2023-05-20T11:53:15.381Z,19.77
2023-05-20T11:54:15.334Z,20.20
2023-05-20T11:55:15.333Z,20.20
2023-05-20T11:56:15.312Z,19.82
2023-05-20T11:57:15.307Z,20.14
2023-05-20T11:58:15.288Z,20.20
2023-05-20T11:59:15.271Z,19.82
2023-05-20T12:00:15.253Z,19.82
2023-05-20T12:02:16.386Z,19.82
2023-05-20T12:03:15.328Z,19.82
2023-05-20T12:04:15.369Z,19.82
2023-05-20T12:05:15.187Z,20.20
2023-05-20T12:06:15.171Z,20.20
2023-05-20T12:07:15.171Z,19.77
2023-05-20T12:08:15.145Z,19.82
2023-05-20T12:09:15.139Z,20.20
2023-05-20T12:10:15.120Z,20.14
2023-05-20T12:11:15.118Z,19.82
2023-05-20T12:12:15.118Z,19.82
2023-05-20T12:13:15.090Z,20.20
2023-05-20T12:14:15.064Z,20.20
2023-05-20T12:15:15.052Z,20.20
2023-05-20T12:16:15.126Z,19.82
2023-05-20T12:17:15.028Z,20.25
2023-05-20T12:18:15.008Z,20.20
2023-05-20T12:19:15.078Z,19.77
2023-05-20T12:20:14.982Z,19.77
2023-05-20T12:21:14.991Z,19.77
2023-05-20T12:22:14.968Z,20.14
2023-05-20T12:23:14.951Z,20.20
2023-05-20T12:24:14.950Z,19.77
2023-05-20T12:25:14.945Z,19.82
2023-05-20T12:26:14.918Z,19.82
2023-05-20T12:27:14.918Z,19.82
2023-05-20T12:28:14.886Z,19.82
2023-05-20T12:29:14.869Z,20.20
2023-05-20T12:30:14.861Z,19.82
2023-05-20T12:31:14.870Z,19.82
2023-05-20T12:32:14.975Z,20.20
2023-05-20T12:33:14.839Z,20.25
2023-05-20T12:34:14.839Z,19.60
2023-05-20T12:35:14.830Z,19.77
2023-05-20T12:36:14.777Z,19.77
2023-05-20T12:37:14.762Z,20.20
2023-05-20T12:38:14.743Z,19.82
2023-05-20T12:39:14.759Z,19.82
2023-05-20T12:40:14.728Z,20.20
2023-05-20T12:41:14.711Z,20.20
2023-05-20T12:42:14.690Z,19.82
2023-05-20T12:43:14.693Z,20.20
2023-05-20T12:44:14.686Z,20.20
2023-05-20T12:45:14.671Z,20.20
2023-05-20T12:46:14.635Z,19.82
2023-05-20T12:47:14.777Z,19.50
2023-05-20T12:48:14.661Z,19.82
2023-05-20T12:49:14.619Z,19.82
2023-05-20T12:50:14.581Z,20.20
2023-05-20T12:51:14.597Z,19.77
2023-05-20T12:52:22.451Z,20.20
2023-05-20T12:53:15.564Z,19.82
2023-05-20T12:54:14.548Z,19.82
2023-05-20T12:55:14.527Z,20.20
2023-05-20T12:56:14.495Z,19.82
2023-05-20T12:57:14.493Z,20.14